createdAt,value
2018-12-22T00:00:18.206Z,96329.02
2018-12-22T00:02:45.951Z,96328.55
2018-12-22T00:05:13.658Z,96318.77
2018-12-22T00:07:41.245Z,96316.95
2018-12-22T00:10:08.842Z,96321.84
2018-12-22T00:12:36.426Z,96317.95
2018-12-22T00:15:04.262Z,96336.44
2018-12-22T00:17:33.035Z,96321.80
2018-12-22T00:20:00.679Z,96325.66
2018-12-22T00:22:28.273Z,96321.55
2018-12-22T00:24:55.859Z,96324.38
2018-12-22T00:27:23.445Z,96320.77
2018-12-22T00:29:51.043Z,96333.12
2018-12-22T00:32:18.692Z,96333.38
2018-12-22T00:34:48.387Z,96329.27
2018-12-22T00:37:16.119Z,96327.98
2018-12-22T00:39:43.912Z,96321.05
2018-12-22T00:42:11.690Z,96324.41
2018-12-22T00:44:39.323Z,96327.73
2018-12-22T00:47:06.902Z,96323.91
2018-12-22T00:49:35.451Z,96331.08
2018-12-22T00:52:03.033Z,96333.88
2018-12-22T00:54:30.610Z,96329.02
2018-12-22T00:56:58.189Z,96339.00
2018-12-22T00:59:25.891Z,96343.61
2018-12-22T01:01:53.710Z,96335.91
2018-12-22T01:04:21.286Z,96333.08
2018-12-22T01:06:48.928Z,96336.69
2018-12-22T01:09:16.785Z,96336.97
2018-12-22T01:11:44.381Z,96336.72
2018-12-22T01:14:11.968Z,96331.30
2018-12-22T01:16:39.886Z,96335.16
2018-12-22T01:19:07.467Z,96329.55
2018-12-22T01:21:35.126Z,96328.52
2018-12-22T01:24:02.707Z,96324.91
2018-12-22T01:26:30.435Z,96332.12
2018-12-22T01:28:58.019Z,96335.44
2018-12-22T01:31:25.718Z,96343.39
2018-12-22T01:33:54.321Z,96342.39
2018-12-22T01:36:22.464Z,96338.00
2018-12-22T01:38:50.042Z,96327.23
2018-12-22T01:41:17.777Z,96327.23
2018-12-22T01:43:45.388Z,96326.19
2018-12-22T01:46:13.063Z,96336.72
2018-12-22T01:48:40.844Z,96329.55
2018-12-22T01:51:08.431Z,96327.73
2018-12-22T01:53:36.154Z,96337.00
2018-12-22T01:56:03.911Z,96332.62
2018-12-22T01:58:31.568Z,96340.35
2018-12-22T02:00:59.973Z,96349.31
2018-12-22T02:03:28.254Z,96337.75
2018-12-22T02:05:56.066Z,96334.94
2018-12-22T02:08:24.617Z,96329.02
2018-12-22T02:10:52.203Z,96329.30
2018-12-22T02:13:20.327Z,96329.05
2018-12-22T02:15:47.938Z,96333.15
2018-12-22T02:18:15.678Z,96335.72
2018-12-22T02:20:43.311Z,96347.53
2018-12-22T02:23:10.928Z,96349.84
2018-12-22T02:25:38.673Z,96339.57
2018-12-22T02:28:06.266Z,96341.11
2018-12-22T02:30:33.843Z,96334.41
2018-12-22T02:33:01.505Z,96336.22
2018-12-22T02:35:29.096Z,96333.15
2018-12-22T02:37:56.705Z,96332.37
2018-12-22T02:40:24.298Z,96328.27
2018-12-22T02:42:51.878Z,96327.23
2018-12-22T02:45:19.466Z,96323.38
2018-12-22T02:47:47.093Z,96328.52
2018-12-22T02:50:14.702Z,96330.83
2018-12-22T02:52:43.286Z,96329.02
2018-12-22T02:55:10.860Z,96319.02
2018-12-22T02:57:38.534Z,96313.38
2018-12-22T03:00:09.658Z,96314.88
2018-12-22T03:02:37.355Z,96305.64
2018-12-22T03:05:05.317Z,96316.70
2018-12-22T03:07:32.905Z,96311.56
2018-12-22T03:10:00.649Z,96294.08
2018-12-22T03:12:28.355Z,96295.65
2018-12-22T03:14:56.039Z,96293.08
2018-12-22T03:17:23.622Z,96299.47
2018-12-22T03:19:51.210Z,96300.50
2018-12-22T03:22:18.810Z,96316.45
2018-12-22T03:24:46.404Z,96298.47
2018-12-22T03:27:14.014Z,96300.76
2018-12-22T03:29:41.893Z,96298.97
2018-12-22T03:32:09.553Z,96302.83
2018-12-22T03:34:37.593Z,96302.58
2018-12-22T03:37:05.247Z,96300.03
2018-12-22T03:39:32.836Z,96292.05
2018-12-22T03:42:00.427Z,96287.69
2018-12-22T03:44:29.126Z,96309.78
2018-12-22T03:46:56.708Z,96318.48
2018-12-22T03:49:24.310Z,96307.45
2018-12-22T03:51:52.168Z,96307.20
2018-12-22T03:54:20.555Z,96311.31
2018-12-22T03:56:48.144Z,96311.84
2018-12-22T03:59:24.451Z,96312.87
2018-12-22T04:01:45.364Z,96312.63
2018-12-22T04:04:12.962Z,96335.73
2018-12-22T04:06:40.725Z,96309.81
2018-12-22T04:09:09.374Z,96296.97
2018-12-22T04:11:37.146Z,96303.64
2018-12-22T04:14:04.737Z,96294.37
2018-12-22T04:16:32.552Z,96287.20
2018-12-22T04:19:00.443Z,96290.55
2018-12-22T04:21:28.584Z,96295.15
2018-12-22T04:23:57.059Z,96287.48
2018-12-22T04:26:24.725Z,96286.69
2018-12-22T04:28:52.324Z,96286.16
2018-12-22T04:31:19.908Z,96288.23
2018-12-22T04:33:47.547Z,96289.52
2018-12-22T04:36:15.499Z,96293.33
2018-12-22T04:38:44.025Z,96278.42
2018-12-22T04:41:11.626Z,96281.23
2018-12-22T04:43:39.218Z,96273.28
2018-12-22T04:46:06.824Z,96260.19
2018-12-22T04:48:34.422Z,96275.84
2018-12-22T04:51:02.084Z,96265.08
2018-12-22T04:53:29.670Z,96271.75
2018-12-22T04:55:57.263Z,96278.45
2018-12-22T04:58:26.017Z,96267.39
2018-12-22T05:00:53.606Z,96277.67
2018-12-22T05:03:21.862Z,96275.38
2018-12-22T05:05:49.434Z,96269.97
2018-12-22T05:08:17.005Z,96274.10
2018-12-22T05:10:44.583Z,96286.66
2018-12-22T05:13:12.962Z,96287.70
2018-12-22T05:15:40.533Z,96299.78
2018-12-22T05:18:08.123Z,96297.69
2018-12-22T05:20:36.514Z,96303.86
2018-12-22T05:23:04.862Z,96295.61
2018-12-22T05:25:32.430Z,96302.29
2018-12-22T05:28:00.340Z,96306.14
2018-12-22T05:30:28.656Z,96315.13
2018-12-22T05:32:57.478Z,96315.42
2018-12-22T05:35:25.066Z,96306.42
2018-12-22T05:37:52.685Z,96321.05
2018-12-22T05:40:20.280Z,96319.73
2018-12-22T05:42:47.943Z,96316.17
2018-12-22T05:45:15.509Z,96309.75
2018-12-22T05:47:43.094Z,96321.34
2018-12-22T05:50:10.682Z,96317.20
2018-12-22T05:52:38.377Z,96313.84
2018-12-22T05:55:07.236Z,96322.05
2018-12-22T05:57:34.821Z,96330.80
2018-12-22T06:00:02.414Z,96335.16
2018-12-22T06:02:29.986Z,96327.95
2018-12-22T06:04:57.735Z,96350.32
2018-12-22T06:07:25.322Z,96321.55
2018-12-22T06:09:52.957Z,96333.88
2018-12-22T06:12:20.685Z,96325.16
2018-12-22T06:14:48.362Z,96331.30
2018-12-22T06:17:16.511Z,96334.69
2018-12-22T06:19:44.178Z,96338.79
2018-12-22T06:22:11.822Z,96343.89
2018-12-22T06:24:39.431Z,96350.82
2018-12-22T06:27:07.003Z,96362.64
2018-12-22T06:29:34.609Z,96346.72
2018-12-22T06:32:03.018Z,96360.09
2018-12-22T06:34:30.598Z,96369.59
2018-12-22T06:36:58.166Z,96354.39
2018-12-22T06:39:26.660Z,96364.70
2018-12-22T06:41:54.235Z,96380.90
2018-12-22T06:44:21.822Z,96392.23
2018-12-22T06:46:49.403Z,96395.30
2018-12-22T06:49:16.983Z,96401.23
2018-12-22T06:51:44.554Z,96403.30
2018-12-22T06:54:12.130Z,96393.81
2018-12-22T06:56:39.715Z,96399.98
2018-12-22T06:59:07.303Z,96421.80
2018-12-22T07:01:34.877Z,96418.97
2018-12-22T07:04:02.460Z,96426.95
2018-12-22T07:06:30.092Z,96435.66
2018-12-22T07:08:57.695Z,96447.48
2018-12-22T07:11:25.280Z,96452.36
2018-12-22T07:13:52.871Z,96451.59
2018-12-22T07:16:20.447Z,96456.96
2018-12-22T07:18:48.126Z,96443.63
2018-12-22T07:21:16.318Z,96441.56
2018-12-22T07:23:44.386Z,96457.49
2018-12-22T07:26:11.958Z,96460.02
2018-12-22T07:28:39.548Z,96452.84
2018-12-22T07:31:07.479Z,96461.07
2018-12-22T07:33:35.065Z,96461.03
2018-12-22T07:36:02.644Z,96455.14
2018-12-22T07:38:30.235Z,96460.02
2018-12-22T07:40:57.815Z,96456.42
2018-12-22T07:43:25.387Z,96457.72
2018-12-22T07:45:52.973Z,96478.49
2018-12-22T07:48:20.606Z,96489.53
2018-12-22T07:50:48.188Z,96496.98
2018-12-22T07:53:15.775Z,96507.48
2018-12-22T07:55:43.354Z,96514.39
2018-12-22T07:58:10.941Z,96520.03
2018-12-22T08:00:38.532Z,96520.80
2018-12-22T08:03:06.129Z,96519.25
2018-12-22T08:05:38.722Z,96534.88
2018-12-22T08:08:03.330Z,96550.55
2018-12-22T08:10:30.904Z,96547.48
2018-12-22T08:12:58.570Z,96550.52
2018-12-22T08:15:26.181Z,96576.47
2018-12-22T08:17:53.767Z,96640.56
2018-12-22T08:20:21.342Z,96574.54
2018-12-22T08:22:48.927Z,96549.27
2018-12-22T08:25:16.527Z,96582.78
2018-12-22T08:27:44.104Z,96580.45
2018-12-22T08:30:11.752Z,96613.48
2018-12-22T08:32:39.333Z,96594.59
2018-12-22T08:35:07.134Z,96581.08
2018-12-22T08:37:35.541Z,96588.87
2018-12-22T08:40:03.667Z,96594.28
2018-12-22T08:42:31.254Z,96607.95
2018-12-22T08:44:58.852Z,96604.41
2018-12-22T08:47:26.467Z,96605.48
2018-12-22T08:49:54.124Z,96595.77
2018-12-22T08:52:21.878Z,96608.84
2018-12-22T08:54:49.462Z,96607.32
2018-12-22T08:57:17.055Z,96604.52
2018-12-22T08:59:44.699Z,96589.42
2018-12-22T09:02:13.038Z,96602.02
2018-12-22T09:04:40.619Z,96606.38
2018-12-22T09:07:08.216Z,96602.53
2018-12-22T09:09:35.786Z,96614.85
2018-12-22T09:12:03.357Z,96621.80
2018-12-22T09:14:30.934Z,96635.94
2018-12-22T09:16:58.506Z,96628.80
2018-12-22T09:19:26.132Z,96653.44
2018-12-22T09:21:53.715Z,96660.11
2018-12-22T09:24:21.311Z,96669.11
2018-12-22T09:26:48.884Z,96670.64
2018-12-22T09:29:16.466Z,96674.98
2018-12-22T09:31:44.040Z,96680.91
2018-12-22T09:34:13.505Z,96677.27
2018-12-22T09:36:41.395Z,96681.08
2018-12-22T09:39:09.101Z,96683.10
2018-12-22T09:41:36.680Z,96685.23
2018-12-22T09:44:04.269Z,96690.06
2018-12-22T09:46:31.858Z,96698.70
2018-12-22T09:48:59.444Z,96701.75
2018-12-22T09:51:27.053Z,96712.79
2018-12-22T09:53:54.652Z,96724.54
2018-12-22T09:56:22.286Z,96740.97
2018-12-22T09:58:49.878Z,96729.44
2018-12-22T10:01:17.462Z,96743.25
2018-12-22T10:03:45.098Z,96740.66
2018-12-22T10:08:46.366Z,96730.87
2018-12-22T10:11:14.081Z,96723.17
2018-12-22T10:13:41.663Z,96730.05
2018-12-22T10:16:09.254Z,96737.48
2018-12-22T10:18:36.897Z,96727.78
2018-12-22T10:21:04.521Z,96737.02
2018-12-22T10:23:32.104Z,96735.97
2018-12-22T10:25:59.683Z,96738.77
2018-12-22T10:28:27.277Z,96745.44
2018-12-22T10:30:54.849Z,96750.03
2018-12-22T10:33:24.288Z,96736.72
2018-12-22T10:35:53.642Z,96753.73
2018-12-22T10:38:21.332Z,96746.72
2018-12-22T10:40:48.929Z,96752.13
2018-12-22T10:43:16.517Z,96741.88
2018-12-22T10:45:44.094Z,96759.86
2018-12-22T10:48:11.680Z,96752.20
2018-12-22T10:50:39.336Z,96747.91
2018-12-22T10:53:07.395Z,96752.33
2018-12-22T10:55:34.976Z,96744.95
2018-12-22T10:58:02.563Z,96744.97
2018-12-22T11:00:30.280Z,96746.52
2018-12-22T11:02:57.864Z,96744.50
2018-12-22T11:05:25.455Z,96748.08
2018-12-22T11:07:53.067Z,96750.94
2018-12-22T11:10:20.651Z,96745.06
2018-12-22T11:12:48.256Z,96752.79
2018-12-22T11:15:15.852Z,96756.66
2018-12-22T11:17:43.542Z,96758.97
2018-12-22T11:20:11.124Z,96762.29
2018-12-22T11:22:38.711Z,96757.39
2018-12-22T11:25:11.039Z,96752.31
2018-12-22T11:27:39.474Z,96754.31
2018-12-22T11:30:14.235Z,96758.23
2018-12-22T11:32:41.839Z,96770.67
2018-12-22T11:35:09.538Z,96769.63
2018-12-22T11:37:37.128Z,96772.03
2018-12-22T11:40:07.449Z,96783.48
2018-12-22T11:42:35.146Z,96770.93
2018-12-22T11:45:03.061Z,96757.58
2018-12-22T11:47:33.617Z,96758.55
2018-12-22T11:50:01.203Z,96737.80
2018-12-22T11:52:28.786Z,96750.36
2018-12-22T11:54:56.365Z,96750.85
2018-12-22T11:57:23.994Z,96760.91
2018-12-22T11:59:51.575Z,96762.59
2018-12-22T12:02:19.556Z,96761.51
2018-12-22T12:04:47.502Z,96761.80
2018-12-22T12:07:15.194Z,96758.85
2018-12-22T12:09:42.803Z,96765.72
2018-12-22T12:12:10.382Z,96763.16
2018-12-22T12:14:38.052Z,96788.81
2018-12-22T12:17:06.506Z,96804.82
2018-12-22T12:19:34.188Z,96787.67
2018-12-22T12:22:02.879Z,96790.56
2018-12-22T12:24:30.574Z,96784.91
2018-12-22T12:26:58.725Z,96809.72
2018-12-22T12:29:26.561Z,96799.70
2018-12-22T12:31:54.158Z,96791.05
2018-12-22T12:34:22.535Z,96807.16
2018-12-22T12:36:50.202Z,96799.63
2018-12-22T12:39:18.445Z,96800.84
2018-12-22T12:41:46.033Z,96828.50
2018-12-22T12:44:13.635Z,96822.93
2018-12-22T12:46:41.214Z,96821.65
2018-12-22T12:49:09.011Z,96819.52
2018-12-22T12:51:36.609Z,96834.14
2018-12-22T12:54:04.406Z,96837.53
2018-12-22T12:56:32.007Z,96845.94
2018-12-22T12:58:59.592Z,96837.95
2018-12-22T13:01:27.186Z,96849.72
2018-12-22T13:03:54.772Z,96842.86
2018-12-22T13:06:22.388Z,96848.12
2018-12-22T13:08:49.997Z,96858.97
2018-12-22T13:11:17.595Z,96845.91
2018-12-22T13:13:46.547Z,96854.56
2018-12-22T13:16:14.154Z,96865.02
2018-12-22T13:18:41.793Z,96852.95
2018-12-22T13:21:09.999Z,96857.84
2018-12-22T13:23:37.575Z,96863.63
2018-12-22T13:26:05.166Z,96855.67
2018-12-22T13:28:32.799Z,96865.66
2018-12-22T13:31:01.102Z,96864.69
2018-12-22T13:33:28.829Z,96879.45
2018-12-22T13:35:56.760Z,96885.30
2018-12-22T13:38:24.508Z,96886.39
2018-12-22T13:40:52.093Z,96896.33
2018-12-22T13:43:19.681Z,96890.91
2018-12-22T13:45:47.256Z,96894.36
2018-12-22T13:48:15.098Z,96892.53
2018-12-22T13:50:43.302Z,96883.63
2018-12-22T13:53:10.977Z,96900.36
2018-12-22T13:55:38.663Z,96906.77
2018-12-22T13:58:06.368Z,96908.04
2018-12-22T14:00:34.031Z,96895.62
2018-12-22T14:03:02.419Z,96894.25
2018-12-22T14:05:30.043Z,96891.96
2018-12-22T14:07:57.641Z,96908.97
2018-12-22T14:10:25.483Z,96906.94
2018-12-22T14:12:53.200Z,96923.53
2018-12-22T14:15:23.805Z,96925.98
2018-12-22T14:18:26.074Z,96911.48
2018-12-22T14:20:54.604Z,96908.99
2018-12-22T14:23:25.460Z,96914.84
2018-12-22T14:25:53.337Z,96925.39
2018-12-22T14:28:20.917Z,96903.80
2018-12-22T14:30:48.519Z,96896.23
2018-12-22T14:33:16.165Z,96901.83
2018-12-22T14:35:44.959Z,96904.34
2018-12-22T14:38:12.573Z,96908.81
2018-12-22T14:40:40.172Z,96910.59
2018-12-22T14:43:07.833Z,96919.11
2018-12-22T14:45:35.423Z,96913.14
2018-12-22T14:48:02.999Z,96915.17
2018-12-22T14:50:30.590Z,96912.88
2018-12-22T14:52:58.762Z,96922.86
2018-12-22T14:55:27.727Z,96930.80
2018-12-22T14:57:57.615Z,96942.55
2018-12-22T15:00:25.264Z,96946.21
2018-12-22T15:02:53.198Z,96945.85
2018-12-22T15:05:22.755Z,96959.70
2018-12-22T15:07:50.336Z,96951.70
2018-12-22T15:10:17.915Z,96954.64
2018-12-22T15:12:45.510Z,96955.92
2018-12-22T15:15:13.102Z,96962.84
2018-12-22T15:17:42.783Z,96964.57
2018-12-22T15:20:19.523Z,96968.39
2018-12-22T15:22:47.110Z,96968.89
2018-12-22T15:25:15.362Z,96962.53
2018-12-22T15:27:42.993Z,96951.00
2018-12-22T15:30:13.460Z,96959.77
2018-12-22T15:32:44.547Z,96960.56
2018-12-22T15:35:10.861Z,96962.84
2018-12-22T15:37:38.439Z,96965.85
2018-12-22T15:40:10.005Z,96965.85
2018-12-22T15:42:37.935Z,96971.77
2018-12-22T15:45:15.686Z,96976.89
2018-12-22T15:47:45.315Z,96989.73
2018-12-22T15:50:24.438Z,96984.41
2018-12-22T15:52:53.017Z,96993.02
2018-12-22T15:55:20.632Z,96986.55
2018-12-22T15:57:48.218Z,96986.43
2018-12-22T16:00:15.824Z,96984.72
2018-12-22T16:02:43.405Z,96987.03
2018-12-22T16:05:12.170Z,96987.50
2018-12-22T16:07:41.845Z,96990.00
2018-12-22T16:10:14.432Z,96999.20
2018-12-22T16:12:42.174Z,97006.97
2018-12-22T16:15:13.261Z,97013.59
2018-12-22T16:17:41.059Z,97021.93
2018-12-22T16:20:11.723Z,97026.78
2018-12-22T16:22:41.777Z,97024.49
2018-12-22T16:25:11.907Z,97043.63
2018-12-22T16:27:40.296Z,97033.56
2018-12-22T16:30:18.519Z,97036.69
2018-12-22T16:32:46.131Z,97047.27
2018-12-22T16:35:13.722Z,97048.44
2018-12-22T16:37:41.323Z,97046.84
2018-12-22T16:40:12.024Z,97046.77
2018-12-22T16:42:39.631Z,97050.61
2018-12-22T16:45:14.370Z,97039.04
2018-12-22T16:47:42.934Z,97043.67
2018-12-22T16:50:13.155Z,97030.03
2018-12-22T16:52:40.740Z,97042.34
2018-12-22T16:55:14.625Z,97046.18
2018-12-22T16:57:55.706Z,97051.94
2018-12-22T17:00:27.489Z,97056.84
2018-12-22T17:02:55.071Z,97061.96
2018-12-22T17:05:22.703Z,97068.16
2018-12-22T17:07:50.453Z,97073.43
2018-12-22T17:10:18.050Z,97082.34
2018-12-22T17:12:46.182Z,97071.48
2018-12-22T17:15:21.770Z,97071.28
2018-12-22T17:17:44.460Z,97083.00
2018-12-22T17:20:14.538Z,97080.98
2018-12-22T17:26:00.446Z,97067.53
2018-12-22T17:28:28.682Z,97075.13
2018-12-22T17:30:56.467Z,97076.49
2018-12-22T17:33:24.055Z,97084.97
2018-12-22T17:35:51.654Z,97088.28
2018-12-22T17:38:20.721Z,97087.52
2018-12-22T17:40:48.699Z,97099.04
2018-12-22T17:43:16.303Z,97092.28
2018-12-22T17:45:43.887Z,97094.12
2018-12-22T17:48:11.487Z,97090.29
2018-12-22T17:50:39.089Z,97100.26
2018-12-22T17:53:06.733Z,97104.09
2018-12-22T17:55:34.331Z,97105.11
2018-12-22T17:58:01.941Z,97105.65
2018-12-22T18:00:29.566Z,97100.18
2018-12-22T18:02:57.155Z,97119.87
2018-12-22T18:05:24.769Z,97121.74
2018-12-22T18:07:52.378Z,97121.20
2018-12-22T18:10:19.978Z,97127.60
2018-12-22T18:12:47.585Z,97142.01
2018-12-22T18:15:19.001Z,97137.11
2018-12-22T18:17:46.760Z,97143.70
2018-12-22T18:20:14.377Z,97146.86
2018-12-22T18:22:41.984Z,97135.06
2018-12-22T18:25:15.963Z,97144.43
2018-12-22T18:27:43.598Z,97138.44
2018-12-22T18:30:12.547Z,97133.59
2018-12-22T18:32:41.541Z,97131.03
2018-12-22T18:35:10.963Z,97118.91
2018-12-22T18:37:39.247Z,97130.63
2018-12-22T18:40:11.293Z,97131.36
2018-12-22T18:42:38.968Z,97130.44
2018-12-22T18:45:10.052Z,97131.93
2018-12-22T18:47:37.674Z,97137.23
2018-12-22T18:50:10.239Z,97151.18
2018-12-22T18:52:37.842Z,97150.58
2018-12-22T18:55:07.911Z,97146.95
2018-12-22T18:57:35.498Z,97146.68
2018-12-22T19:00:04.417Z,97143.03
2018-12-22T19:02:32.011Z,97141.29
2018-12-22T19:04:59.665Z,97139.73
2018-12-22T19:07:27.373Z,97142.02
2018-12-22T19:09:55.025Z,97132.27
2018-12-22T19:12:22.686Z,97136.63
2018-12-22T19:14:53.798Z,97144.37
2018-12-22T19:17:21.426Z,97148.20
2018-12-22T19:19:49.292Z,97143.17
2018-12-22T19:22:16.890Z,97148.89
2018-12-22T19:24:44.474Z,97149.36
2018-12-22T19:27:12.077Z,97150.72
2018-12-22T19:29:40.532Z,97150.37
2018-12-22T19:32:08.128Z,97150.09
2018-12-22T19:34:35.772Z,97160.22
2018-12-22T19:37:03.428Z,97156.69
2018-12-22T19:39:31.023Z,97163.09
2018-12-22T19:41:58.623Z,97161.23
2018-12-22T19:44:26.207Z,97164.85
2018-12-22T19:46:53.793Z,97165.04
2018-12-22T19:49:21.399Z,97160.47
2018-12-22T19:51:48.984Z,97171.66
2018-12-22T19:54:16.571Z,97175.49
2018-12-22T19:56:44.172Z,97171.71
2018-12-22T19:59:11.789Z,97180.15
2018-12-22T20:01:39.428Z,97179.88
2018-12-22T20:04:07.025Z,97175.03
2018-12-22T20:06:34.613Z,97174.55
2018-12-22T20:09:02.277Z,97178.11
2018-12-22T20:11:29.958Z,97184.33
2018-12-22T20:13:57.551Z,97193.34
2018-12-22T20:16:25.138Z,97177.16
2018-12-22T20:18:52.741Z,97183.05
2018-12-22T20:21:20.338Z,97183.26
2018-12-22T20:23:47.933Z,97181.00
2018-12-22T20:26:15.527Z,97188.29
2018-12-22T20:28:43.170Z,97188.37
2018-12-22T20:31:10.781Z,97190.39
2018-12-22T20:33:38.393Z,97196.05
2018-12-22T20:36:05.974Z,97208.45
2018-12-22T20:38:33.570Z,97214.91
2018-12-22T20:41:01.175Z,97198.31
2018-12-22T20:43:28.772Z,97190.77
2018-12-22T20:45:56.543Z,97195.82
2018-12-22T20:48:24.143Z,97189.23
2018-12-22T20:50:51.784Z,97181.36
2018-12-22T20:53:19.418Z,97186.88
2018-12-22T20:55:47.011Z,97196.30
2018-12-22T20:58:14.590Z,97204.67
2018-12-22T21:00:42.188Z,97224.39
2018-12-22T21:03:09.839Z,97235.41
2018-12-22T21:05:41.477Z,97225.16
2018-12-22T21:08:09.080Z,97233.47
2018-12-22T21:10:36.742Z,97227.34
2018-12-22T21:13:04.341Z,97228.97
2018-12-22T21:15:31.925Z,97225.95
2018-12-22T21:17:59.516Z,97220.55
2018-12-22T21:20:27.110Z,97226.34
2018-12-22T21:22:54.704Z,97231.86
2018-12-22T21:25:22.295Z,97239.57
2018-12-22T21:27:49.926Z,97237.41
2018-12-22T21:30:17.510Z,97232.20
2018-12-22T21:32:45.097Z,97232.13
2018-12-22T21:35:12.681Z,97233.54
2018-12-22T21:37:40.281Z,97240.94
2018-12-22T21:40:08.303Z,97244.50
2018-12-22T21:42:35.887Z,97246.00
2018-12-22T21:45:03.524Z,97243.92
2018-12-22T21:47:31.111Z,97245.17
2018-12-22T21:49:58.681Z,97249.56
2018-12-22T21:52:26.533Z,97257.97
2018-12-22T21:54:54.134Z,97243.72
2018-12-22T21:57:21.851Z,97244.38
2018-12-22T21:59:49.442Z,97238.72
2018-12-22T22:02:17.034Z,97235.61
2018-12-22T22:04:44.617Z,97239.88
2018-12-22T22:07:12.199Z,97243.01
2018-12-22T22:09:39.821Z,97248.01
2018-12-22T22:12:07.424Z,97260.66
2018-12-22T22:14:35.077Z,97264.62
2018-12-22T22:17:02.704Z,97255.59
2018-12-22T22:19:30.285Z,97273.58
2018-12-22T22:21:57.867Z,97259.34
2018-12-22T22:24:25.470Z,97256.94
2018-12-22T22:26:53.156Z,97252.22
2018-12-22T22:29:20.870Z,97271.69
2018-12-22T22:31:48.445Z,97255.56
2018-12-22T22:34:16.029Z,97258.58
2018-12-22T22:36:43.608Z,97259.73
2018-12-22T22:39:11.189Z,97262.84
2018-12-22T22:41:38.770Z,97264.91
2018-12-22T22:44:06.434Z,97264.52
2018-12-22T22:46:34.020Z,97250.39
2018-12-22T22:49:01.610Z,97254.05
2018-12-22T22:51:29.193Z,97256.57
2018-12-22T22:53:56.787Z,97257.79
2018-12-22T22:56:24.370Z,97262.84
2018-12-22T22:58:51.963Z,97268.75
2018-12-22T23:01:19.538Z,97266.59
2018-12-22T23:03:47.123Z,97270.64
2018-12-22T23:06:14.693Z,97273.66
2018-12-22T23:08:42.286Z,97279.80
2018-12-22T23:11:09.860Z,97281.05
2018-12-22T23:13:37.433Z,97282.61
2018-12-22T23:16:05.068Z,97280.27
2018-12-22T23:18:32.658Z,97282.61
2018-12-22T23:21:00.249Z,97284.64
2018-12-22T23:23:27.833Z,97288.59
2018-12-22T23:26:01.357Z,97290.39
2018-12-22T23:28:29.015Z,97292.95
2018-12-22T23:30:56.691Z,97300.73
2018-12-22T23:33:24.401Z,97297.00
2018-12-22T23:35:51.991Z,97297.34
2018-12-22T23:38:19.566Z,97296.52
2018-12-22T23:40:47.137Z,97298.17
2018-12-22T23:43:14.718Z,97297.41
2018-12-22T23:45:42.445Z,97300.00
2018-12-22T23:48:10.022Z,97326.06
2018-12-22T23:50:37.632Z,97334.11
2018-12-22T23:53:05.252Z,97330.45
2018-12-22T23:55:32.835Z,97338.06
2018-12-22T23:58:00.413Z,97335.12
